createdAt,value
2019-03-12T00:00:24.202Z,3.76
2019-03-12T00:01:24.187Z,3.74
2019-03-12T00:02:24.167Z,3.77
2019-03-12T00:03:24.161Z,3.70
2019-03-12T00:04:24.127Z,3.74
2019-03-12T00:05:24.125Z,3.73
2019-03-12T00:06:24.090Z,3.73
2019-03-12T00:07:24.070Z,3.61
2019-03-12T00:08:24.048Z,3.59
2019-03-12T00:09:24.025Z,3.64
2019-03-12T00:10:24.374Z,3.61
2019-03-12T00:11:23.985Z,3.56
2019-03-12T00:12:24.013Z,3.53
2019-03-12T00:13:23.949Z,3.63
2019-03-12T00:14:23.927Z,3.59
2019-03-12T00:15:23.905Z,3.41
2019-03-12T00:16:23.903Z,3.41
2019-03-12T00:17:23.870Z,3.50
2019-03-12T00:18:23.850Z,3.40
2019-03-12T00:19:23.828Z,3.40
2019-03-12T00:20:23.807Z,3.36
2019-03-12T00:21:23.791Z,3.22
2019-03-12T00:22:23.769Z,3.36
2019-03-12T00:23:23.742Z,3.27
2019-03-12T00:24:23.726Z,3.26
2019-03-12T00:25:23.720Z,3.26
2019-03-12T00:26:23.811Z,3.11
2019-03-12T00:27:23.714Z,3.15
2019-03-12T00:28:23.641Z,3.13
2019-03-12T00:29:23.705Z,3.12
2019-03-12T00:30:23.608Z,3.09
2019-03-12T00:31:23.583Z,3.03
2019-03-12T00:32:23.559Z,2.95
2019-03-12T00:33:23.546Z,2.94
2019-03-12T00:34:23.532Z,2.95
2019-03-12T00:35:23.503Z,2.85
2019-03-12T00:36:23.478Z,2.91
2019-03-12T00:37:23.464Z,2.95
2019-03-12T00:38:23.442Z,2.82
2019-03-12T00:39:23.419Z,2.73
2019-03-12T00:40:23.414Z,2.76
2019-03-12T00:41:23.378Z,2.79
2019-03-12T00:42:23.363Z,2.75
2019-03-12T00:43:23.339Z,2.70
2019-03-12T00:44:23.329Z,2.70
2019-03-12T00:45:23.306Z,2.61
2019-03-12T00:46:23.303Z,2.59
2019-03-12T00:47:23.265Z,2.59
2019-03-12T00:48:23.240Z,2.52
2019-03-12T00:49:23.240Z,2.52
2019-03-12T00:50:23.200Z,2.46
2019-03-12T00:51:23.179Z,2.46
2019-03-12T00:52:23.162Z,2.47
2019-03-12T00:53:23.137Z,2.39
2019-03-12T00:54:23.116Z,2.40
2019-03-12T00:55:23.135Z,2.40
2019-03-12T00:56:23.084Z,2.40
2019-03-12T00:57:23.061Z,2.39
2019-03-12T00:58:23.043Z,2.43
2019-03-12T00:59:23.012Z,2.30
2019-03-12T01:00:23.004Z,2.30
2019-03-12T01:01:22.981Z,2.25
2019-03-12T01:02:22.952Z,2.28
2019-03-12T01:03:22.939Z,2.22
2019-03-12T01:04:22.909Z,2.25
2019-03-12T01:05:22.892Z,2.19
2019-03-12T01:06:22.902Z,2.18
2019-03-12T01:07:22.856Z,2.10
2019-03-12T01:08:22.838Z,2.15
2019-03-12T01:09:22.815Z,2.08
2019-03-12T01:10:22.792Z,2.00
2019-03-12T01:11:22.770Z,2.05
2019-03-12T01:12:22.751Z,1.88
2019-03-12T01:13:22.730Z,1.89
2019-03-12T01:14:22.724Z,1.95
2019-03-12T01:15:22.700Z,1.78
2019-03-12T01:16:22.680Z,1.82
2019-03-12T01:17:22.644Z,1.70
2019-03-12T01:18:22.630Z,1.75
2019-03-12T01:19:22.612Z,1.82
2019-03-12T01:20:22.591Z,1.75
2019-03-12T01:21:22.563Z,1.68
2019-03-12T01:22:22.547Z,1.67
2019-03-12T01:23:22.553Z,1.64
2019-03-12T01:24:22.502Z,1.63
2019-03-12T01:25:22.482Z,1.64
2019-03-12T01:26:22.463Z,1.61
2019-03-12T01:27:22.447Z,1.66
2019-03-12T01:28:22.435Z,1.56
2019-03-12T01:29:22.407Z,1.66
2019-03-12T01:30:22.379Z,1.68
2019-03-12T01:31:22.361Z,1.67
2019-03-12T01:32:22.339Z,1.63
2019-03-12T01:33:22.315Z,1.67
2019-03-12T01:34:22.298Z,1.84
2019-03-12T01:35:22.279Z,1.88
2019-03-12T01:36:22.270Z,1.93
2019-03-12T01:37:22.236Z,1.92
2019-03-12T01:38:22.212Z,2.00
2019-03-12T01:39:22.218Z,2.05
2019-03-12T01:40:22.175Z,2.18
2019-03-12T01:41:22.153Z,2.19
2019-03-12T01:42:22.133Z,2.28
2019-03-12T01:43:22.137Z,2.28
2019-03-12T01:44:22.084Z,2.33
2019-03-12T01:45:22.067Z,2.34
2019-03-12T01:46:22.051Z,2.41
2019-03-12T01:47:22.038Z,2.41
2019-03-12T01:48:22.005Z,2.47
2019-03-12T01:49:21.980Z,2.59
2019-03-12T01:50:21.964Z,2.58
2019-03-12T01:51:21.946Z,2.64
2019-03-12T01:52:21.933Z,2.72
2019-03-12T01:53:21.907Z,2.68
2019-03-12T01:54:21.888Z,2.73
2019-03-12T01:55:21.859Z,2.76
2019-03-12T01:56:21.845Z,2.73
2019-03-12T01:57:21.826Z,2.83
2019-03-12T01:58:21.802Z,2.77
2019-03-12T01:59:21.784Z,2.97
2019-03-12T02:00:21.761Z,2.90
2019-03-12T02:01:21.742Z,2.93
2019-03-12T02:02:21.724Z,2.85
2019-03-12T02:03:21.697Z,2.91
2019-03-12T02:04:21.687Z,2.87
2019-03-12T02:05:21.670Z,2.97
2019-03-12T02:06:21.640Z,2.94
2019-03-12T02:07:21.625Z,2.94
2019-03-12T02:08:21.614Z,3.09
2019-03-12T02:09:21.575Z,3.03
2019-03-12T02:10:21.562Z,3.11
2019-03-12T02:11:21.540Z,3.05
2019-03-12T02:12:21.513Z,3.12
2019-03-12T02:13:21.507Z,3.12
2019-03-12T02:14:21.480Z,3.16
2019-03-12T02:15:21.456Z,3.15
2019-03-12T02:16:21.435Z,3.15
2019-03-12T02:17:21.427Z,3.16
2019-03-12T02:18:21.397Z,3.24
2019-03-12T02:19:21.376Z,3.13
2019-03-12T02:20:21.358Z,3.13
2019-03-12T02:21:21.336Z,3.21
2019-03-12T02:22:21.326Z,3.31
2019-03-12T02:23:21.297Z,3.22
2019-03-12T02:24:21.279Z,3.22
2019-03-12T02:25:21.258Z,3.24
2019-03-12T02:26:21.238Z,3.24
2019-03-12T02:27:21.218Z,3.31
2019-03-12T02:28:21.199Z,3.26
2019-03-12T02:29:21.178Z,3.34
2019-03-12T02:30:21.160Z,3.31
2019-03-12T02:31:21.137Z,3.30
2019-03-12T02:32:21.167Z,3.30
2019-03-12T02:33:21.109Z,3.30
2019-03-12T02:34:21.071Z,3.31
2019-03-12T02:35:21.064Z,3.34
2019-03-12T02:36:21.033Z,3.36
2019-03-12T02:37:21.032Z,3.43
2019-03-12T02:38:20.995Z,3.34
2019-03-12T02:39:20.973Z,3.36
2019-03-12T02:40:20.950Z,3.37
2019-03-12T02:41:20.942Z,3.43
2019-03-12T02:42:20.915Z,3.36
2019-03-12T02:43:20.895Z,3.37
2019-03-12T02:44:20.878Z,3.36
2019-03-12T02:45:20.855Z,3.27
2019-03-12T02:46:20.830Z,3.36
2019-03-12T02:47:20.813Z,3.30
2019-03-12T02:48:20.789Z,3.29
2019-03-12T02:49:20.777Z,3.33
2019-03-12T02:50:20.758Z,3.26
2019-03-12T02:51:20.747Z,3.29
2019-03-12T02:52:20.709Z,3.11
2019-03-12T02:53:20.851Z,3.12
2019-03-12T02:54:20.677Z,3.11
2019-03-12T02:55:20.660Z,3.08
2019-03-12T02:56:20.623Z,3.05
2019-03-12T02:57:20.616Z,3.09
2019-03-12T02:58:20.594Z,3.06
2019-03-12T02:59:20.565Z,3.00
2019-03-12T03:00:20.548Z,2.97
2019-03-12T03:01:20.529Z,2.98
2019-03-12T03:02:20.503Z,2.97
2019-03-12T03:03:20.490Z,2.83
2019-03-12T03:04:20.465Z,2.88
2019-03-12T03:05:20.454Z,2.90
2019-03-12T03:06:20.472Z,2.90
2019-03-12T03:07:20.405Z,2.90
2019-03-12T03:08:20.421Z,2.95
2019-03-12T03:09:20.375Z,2.94
2019-03-12T03:10:20.363Z,2.88
2019-03-12T03:11:20.420Z,2.93
2019-03-12T03:12:20.302Z,2.94
2019-03-12T03:13:20.313Z,2.93
2019-03-12T03:14:20.287Z,3.00
2019-03-12T03:15:20.245Z,3.06
2019-03-12T03:16:23.840Z,3.00
2019-03-12T03:17:20.223Z,3.03
2019-03-12T03:18:20.195Z,3.08
2019-03-12T03:19:20.159Z,3.13
2019-03-12T03:20:20.147Z,3.11
2019-03-12T03:21:20.134Z,3.11
2019-03-12T03:22:20.128Z,3.09
2019-03-12T03:23:20.083Z,3.12
2019-03-12T03:24:20.062Z,3.15
2019-03-12T03:25:20.045Z,3.13
2019-03-12T03:26:20.237Z,3.15
2019-03-12T03:27:20.012Z,3.22
2019-03-12T03:28:19.991Z,3.22
2019-03-12T03:29:19.977Z,3.27
2019-03-12T03:30:19.961Z,3.33
2019-03-12T03:31:19.966Z,3.26
2019-03-12T03:32:19.914Z,3.27
2019-03-12T03:33:19.877Z,3.30
2019-03-12T03:34:27.023Z,3.26
2019-03-12T03:35:19.860Z,3.26
2019-03-12T03:36:19.843Z,3.34
2019-03-12T03:37:19.798Z,3.22
2019-03-12T03:38:19.779Z,3.22
2019-03-12T03:39:19.763Z,3.16
2019-03-12T03:40:19.771Z,3.13
2019-03-12T03:41:19.722Z,3.08
2019-03-12T03:42:19.714Z,3.08
2019-03-12T03:43:19.691Z,3.12
2019-03-12T03:44:19.664Z,3.01
2019-03-12T03:45:19.648Z,2.90
2019-03-12T03:46:19.615Z,2.90
2019-03-12T03:47:20.070Z,2.97
2019-03-12T03:48:19.599Z,2.91
2019-03-12T03:49:19.554Z,2.85
2019-03-12T03:50:19.553Z,2.72
2019-03-12T03:51:19.511Z,2.75
2019-03-12T03:52:19.502Z,2.70
2019-03-12T03:53:19.477Z,2.73
2019-03-12T03:54:19.475Z,2.69
2019-03-12T03:55:19.435Z,2.52
2019-03-12T03:56:19.431Z,2.58
2019-03-12T03:57:19.401Z,2.46
2019-03-12T03:58:19.407Z,2.50
2019-03-12T03:59:19.357Z,2.54
2019-03-12T04:00:19.343Z,2.59
2019-03-12T04:01:19.314Z,2.54
2019-03-12T04:02:19.294Z,2.43
2019-03-12T04:03:19.278Z,2.39
2019-03-12T04:04:19.334Z,2.40
2019-03-12T04:05:19.248Z,2.37
2019-03-12T04:06:19.210Z,2.32
2019-03-12T04:07:19.187Z,2.32
2019-03-12T04:08:19.168Z,2.23
2019-03-12T04:09:19.142Z,2.21
2019-03-12T04:10:19.133Z,2.19
2019-03-12T04:11:19.109Z,2.23
2019-03-12T04:12:19.091Z,2.19
2019-03-12T04:13:19.072Z,2.14
2019-03-12T04:14:19.056Z,2.15
2019-03-12T04:15:19.047Z,2.10
2019-03-12T04:16:19.018Z,2.15
2019-03-12T04:17:18.977Z,2.18
2019-03-12T04:18:18.972Z,2.03
2019-03-12T04:19:18.938Z,2.14
2019-03-12T04:20:18.914Z,2.04
2019-03-12T04:21:18.919Z,1.85
2019-03-12T04:22:18.910Z,1.89
2019-03-12T04:23:18.891Z,1.95
2019-03-12T04:24:18.834Z,1.95
2019-03-12T04:25:18.994Z,1.89
2019-03-12T04:26:18.790Z,1.97
2019-03-12T04:27:18.775Z,2.00
2019-03-12T04:28:18.753Z,1.97
2019-03-12T04:29:18.727Z,1.89
2019-03-12T04:30:18.711Z,1.82
2019-03-12T04:31:18.686Z,1.79
2019-03-12T04:32:18.675Z,1.86
2019-03-12T04:33:18.650Z,1.81
2019-03-12T04:34:18.636Z,1.89
2019-03-12T04:35:18.615Z,1.82
2019-03-12T04:36:18.587Z,1.95
2019-03-12T04:37:18.567Z,1.82
2019-03-12T04:38:18.560Z,1.82
2019-03-12T04:39:18.528Z,1.86
2019-03-12T04:40:18.507Z,1.79
2019-03-12T04:41:18.477Z,1.71
2019-03-12T04:42:18.466Z,1.70
2019-03-12T04:43:18.459Z,1.70
2019-03-12T04:44:18.418Z,1.75
2019-03-12T04:45:18.407Z,1.78
2019-03-12T04:46:18.380Z,1.71
2019-03-12T04:47:18.349Z,1.64
2019-03-12T04:48:18.335Z,1.67
2019-03-12T04:49:18.315Z,1.64
2019-03-12T04:50:18.299Z,1.64
2019-03-12T04:51:18.273Z,1.64
2019-03-12T04:52:18.273Z,1.60
2019-03-12T04:53:18.273Z,1.61
2019-03-12T04:54:18.213Z,1.64
2019-03-12T04:55:18.187Z,1.63
2019-03-12T04:56:18.171Z,1.61
2019-03-12T04:57:18.150Z,1.58
2019-03-12T04:58:18.125Z,1.58
2019-03-12T04:59:18.105Z,1.60
2019-03-12T05:00:18.085Z,1.50
2019-03-12T05:01:18.055Z,1.52
2019-03-12T05:02:18.036Z,1.50
2019-03-12T05:03:18.021Z,1.56
2019-03-12T05:04:18.005Z,1.46
2019-03-12T05:05:17.979Z,1.50
2019-03-12T05:06:19.769Z,1.39
2019-03-12T05:07:17.935Z,1.50
2019-03-12T05:08:17.914Z,1.45
2019-03-12T05:09:17.896Z,1.50
2019-03-12T05:10:17.891Z,1.46
2019-03-12T05:11:17.859Z,1.42
2019-03-12T05:12:17.825Z,1.39
2019-03-12T05:13:17.807Z,1.43
2019-03-12T05:14:17.789Z,1.40
2019-03-12T05:15:17.858Z,1.42
2019-03-12T05:16:17.746Z,1.40
2019-03-12T05:17:17.726Z,1.40
2019-03-12T05:18:17.705Z,1.40
2019-03-12T05:19:17.709Z,1.40
2019-03-12T05:20:17.657Z,1.40
2019-03-12T05:21:17.649Z,1.43
2019-03-12T05:22:17.622Z,1.40
2019-03-12T05:23:17.595Z,1.45
2019-03-12T05:24:17.584Z,1.50
2019-03-12T05:25:17.557Z,1.46
2019-03-12T05:26:17.536Z,1.49
2019-03-12T05:27:17.507Z,1.53
2019-03-12T05:28:17.497Z,1.56
2019-03-12T05:29:17.475Z,1.46
2019-03-12T05:30:17.451Z,1.50
2019-03-12T05:31:17.425Z,1.46
2019-03-12T05:32:17.402Z,1.52
2019-03-12T05:33:17.389Z,1.52
2019-03-12T05:34:17.366Z,1.39
2019-03-12T05:35:17.350Z,1.43
2019-03-12T05:36:17.324Z,1.38
2019-03-12T05:37:17.303Z,1.36
2019-03-12T05:38:17.281Z,1.38
2019-03-12T05:39:17.538Z,1.39
2019-03-12T05:40:17.237Z,1.39
2019-03-12T05:41:17.220Z,1.40
2019-03-12T05:42:17.205Z,1.39
2019-03-12T05:43:17.174Z,1.39
2019-03-12T05:44:17.157Z,1.38
2019-03-12T05:45:17.129Z,1.42
2019-03-12T05:46:17.115Z,1.57
2019-03-12T05:47:17.091Z,1.48
2019-03-12T05:48:17.072Z,1.49
2019-03-12T05:49:17.071Z,1.48
2019-03-12T05:50:17.027Z,1.52
2019-03-12T05:51:17.004Z,1.49
2019-03-12T05:52:17.000Z,1.45
2019-03-12T05:53:16.964Z,1.53
2019-03-12T05:54:16.959Z,1.52
2019-03-12T05:55:16.929Z,1.63
2019-03-12T05:56:16.901Z,1.57
2019-03-12T05:57:16.882Z,1.56
2019-03-12T05:58:16.860Z,1.67
2019-03-12T05:59:16.838Z,1.61
2019-03-12T06:00:16.827Z,1.63
2019-03-12T06:01:16.799Z,1.64
2019-03-12T06:02:16.778Z,1.64
2019-03-12T06:03:16.752Z,1.66
2019-03-12T06:04:16.785Z,1.70
2019-03-12T06:05:16.711Z,1.76
2019-03-12T06:06:16.692Z,1.76
2019-03-12T06:07:16.676Z,1.74
2019-03-12T06:08:16.660Z,1.75
2019-03-12T06:09:29.409Z,1.81
2019-03-12T06:10:16.608Z,1.79
2019-03-12T06:11:16.585Z,1.84
2019-03-12T06:12:16.579Z,1.86
2019-03-12T06:13:16.546Z,1.92
2019-03-12T06:14:16.529Z,1.93
2019-03-12T06:15:16.503Z,1.97
2019-03-12T06:16:16.487Z,2.04
2019-03-12T06:17:16.457Z,2.03
2019-03-12T06:18:16.436Z,2.04
2019-03-12T06:19:16.419Z,2.03
2019-03-12T06:20:16.402Z,2.10
2019-03-12T06:21:16.374Z,2.16
2019-03-12T06:22:16.378Z,2.12
2019-03-12T06:23:16.332Z,2.26
2019-03-12T06:24:16.312Z,2.23
2019-03-12T06:25:16.293Z,2.25
2019-03-12T06:26:16.281Z,2.26
2019-03-12T06:27:18.225Z,2.30
2019-03-12T06:28:16.229Z,2.37
2019-03-12T06:29:16.213Z,2.34
2019-03-12T06:30:16.191Z,2.39
2019-03-12T06:31:16.166Z,2.37
2019-03-12T06:32:16.144Z,2.41
2019-03-12T06:33:16.125Z,2.40
2019-03-12T06:34:16.129Z,2.44
2019-03-12T06:35:16.099Z,2.39
2019-03-12T06:36:16.066Z,2.44
2019-03-12T06:37:16.041Z,2.41
2019-03-12T06:38:16.021Z,2.41
2019-03-12T06:39:16.013Z,2.41
2019-03-12T06:40:15.986Z,2.51
2019-03-12T06:41:15.972Z,2.54
2019-03-12T06:42:15.941Z,2.46
2019-03-12T06:43:16.009Z,2.55
2019-03-12T06:44:15.896Z,2.51
2019-03-12T06:45:15.878Z,2.61
2019-03-12T06:46:15.857Z,2.54
2019-03-12T06:47:15.835Z,2.41
2019-03-12T06:48:15.811Z,2.51
2019-03-12T06:49:15.790Z,2.50
2019-03-12T06:50:15.793Z,2.43
2019-03-12T06:51:15.755Z,2.54
2019-03-12T06:52:15.733Z,2.47
2019-03-12T06:53:15.715Z,2.47
2019-03-12T06:54:15.696Z,2.52
2019-03-12T06:55:15.668Z,2.55
2019-03-12T06:56:15.651Z,2.58
2019-03-12T06:57:15.626Z,2.57
2019-03-12T06:58:15.621Z,2.65
2019-03-12T06:59:15.591Z,2.59
2019-03-12T07:00:15.573Z,2.61
2019-03-12T07:01:15.548Z,2.68
2019-03-12T07:02:15.533Z,2.64
2019-03-12T07:03:15.501Z,2.68
2019-03-12T07:04:15.482Z,2.75
2019-03-12T07:05:15.471Z,2.72
2019-03-12T07:06:15.449Z,2.72
2019-03-12T07:07:17.157Z,2.76
2019-03-12T07:08:15.405Z,2.76
2019-03-12T07:09:15.387Z,2.87
2019-03-12T07:10:15.363Z,2.95
2019-03-12T07:11:15.345Z,2.90
2019-03-12T07:12:15.325Z,3.00
2019-03-12T07:13:15.307Z,3.00
2019-03-12T07:14:15.286Z,3.00
2019-03-12T07:15:15.262Z,3.09
2019-03-12T07:16:15.246Z,3.13
2019-03-12T07:17:15.225Z,3.29
2019-03-12T07:18:15.207Z,3.31
2019-03-12T07:19:15.183Z,3.41
2019-03-12T07:20:15.162Z,3.43
2019-03-12T07:21:15.145Z,3.49
2019-03-12T07:22:15.122Z,3.56
2019-03-12T07:23:15.098Z,3.63
2019-03-12T07:24:15.086Z,3.73
2019-03-12T07:25:15.071Z,3.66
2019-03-12T07:26:15.042Z,3.76
2019-03-12T07:27:15.022Z,3.74
2019-03-12T07:28:15.017Z,3.82
2019-03-12T07:29:14.986Z,3.85
2019-03-12T07:30:14.960Z,3.84
2019-03-12T07:31:14.974Z,3.86
2019-03-12T07:32:14.922Z,3.88
2019-03-12T07:33:14.904Z,3.91
2019-03-12T07:34:18.087Z,3.88
2019-03-12T07:35:14.863Z,3.91
2019-03-12T07:36:14.856Z,3.94
2019-03-12T07:37:14.826Z,3.95
2019-03-12T07:38:14.803Z,4.13
2019-03-12T07:39:14.795Z,4.13
2019-03-12T07:40:14.771Z,4.12
2019-03-12T07:41:25.094Z,4.14
2019-03-12T07:42:14.751Z,4.27
2019-03-12T07:43:14.714Z,4.18
2019-03-12T07:44:14.689Z,4.21
2019-03-12T07:45:14.669Z,4.20
2019-03-12T07:46:14.650Z,4.38
2019-03-12T07:47:14.627Z,4.43
2019-03-12T07:48:14.612Z,4.49
2019-03-12T07:49:14.588Z,4.67
2019-03-12T07:50:14.574Z,4.68
2019-03-12T07:51:14.551Z,4.82
2019-03-12T07:52:14.534Z,4.84
2019-03-12T07:53:14.513Z,4.97
2019-03-12T07:54:14.493Z,4.98
2019-03-12T07:55:14.475Z,5.07
2019-03-12T07:56:14.479Z,5.12
2019-03-12T07:57:14.436Z,5.16
2019-03-12T07:58:14.419Z,5.28
2019-03-12T07:59:14.401Z,5.34
2019-03-12T08:00:14.380Z,5.44
2019-03-12T08:01:14.359Z,5.41
2019-03-12T08:02:14.349Z,5.51
2019-03-12T08:03:14.323Z,5.61
2019-03-12T08:04:14.306Z,5.73
2019-03-12T08:05:14.286Z,5.76
2019-03-12T08:06:14.268Z,5.87
2019-03-12T08:07:14.246Z,5.98
2019-03-12T08:08:14.225Z,6.01
2019-03-12T08:09:14.239Z,6.22
2019-03-12T08:10:14.196Z,6.16
2019-03-12T08:11:14.174Z,6.25
2019-03-12T08:12:14.153Z,6.26
2019-03-12T08:13:14.133Z,6.29
2019-03-12T08:14:14.227Z,6.28
2019-03-12T08:15:22.918Z,6.41
2019-03-12T08:16:14.082Z,6.43
2019-03-12T08:17:14.066Z,6.36
2019-03-12T08:18:14.048Z,6.43
2019-03-12T08:19:14.035Z,6.41
2019-03-12T08:20:14.033Z,6.36
2019-03-12T08:21:22.293Z,6.50
2019-03-12T08:22:14.047Z,6.56
2019-03-12T08:23:13.958Z,6.67
2019-03-12T08:24:14.016Z,6.71
2019-03-12T08:25:13.923Z,6.80
2019-03-12T08:26:13.904Z,6.85
2019-03-12T08:27:13.880Z,7.00
2019-03-12T08:28:13.865Z,7.04
2019-03-12T08:29:13.850Z,7.04
2019-03-12T08:30:13.834Z,7.05
2019-03-12T08:31:13.817Z,7.18
2019-03-12T08:32:13.800Z,7.21
2019-03-12T08:33:13.780Z,7.32
2019-03-12T08:34:13.761Z,7.31
2019-03-12T08:35:13.743Z,7.46
2019-03-12T08:36:13.727Z,7.51
2019-03-12T08:37:13.709Z,7.64
2019-03-12T08:38:13.692Z,7.77
2019-03-12T08:39:13.672Z,7.84
2019-03-12T08:40:13.673Z,7.91
2019-03-12T08:41:13.659Z,8.06
2019-03-12T08:42:13.627Z,8.13
2019-03-12T08:43:13.610Z,8.18
2019-03-12T08:44:13.586Z,8.23
2019-03-12T08:45:15.381Z,8.32
2019-03-12T08:46:13.556Z,8.32
2019-03-12T08:47:13.534Z,8.42
2019-03-12T08:48:13.520Z,8.50
2019-03-12T08:49:13.507Z,8.57
2019-03-12T08:50:13.486Z,8.66
2019-03-12T08:51:13.470Z,8.75
2019-03-12T08:52:13.454Z,8.77
2019-03-12T08:53:13.436Z,8.95
2019-03-12T08:54:13.421Z,9.00
2019-03-12T08:55:13.403Z,9.09
2019-03-12T08:56:13.388Z,9.21
2019-03-12T08:57:13.373Z,9.21
2019-03-12T08:58:13.353Z,9.27
2019-03-12T08:59:13.343Z,9.27
2019-03-12T09:00:13.321Z,9.24
2019-03-12T09:01:13.302Z,9.31
2019-03-12T09:02:13.288Z,9.29
2019-03-12T09:03:13.268Z,9.40
2019-03-12T09:04:13.252Z,9.58
2019-03-12T09:05:13.253Z,9.52
2019-03-12T09:06:13.218Z,9.55
2019-03-12T09:07:13.203Z,9.62
2019-03-12T09:08:13.187Z,9.76
2019-03-12T09:09:13.173Z,9.90
2019-03-12T09:10:13.156Z,9.94
2019-03-12T09:11:13.139Z,10.00
2019-03-12T09:12:13.122Z,10.15
2019-03-12T09:13:13.122Z,10.13
2019-03-12T09:14:13.098Z,10.21
2019-03-12T09:15:13.074Z,10.23
2019-03-12T09:16:13.059Z,10.30
2019-03-12T09:17:13.044Z,10.45
2019-03-12T09:18:13.028Z,10.51
2019-03-12T09:19:13.060Z,10.59
2019-03-12T09:20:12.993Z,10.75
2019-03-12T09:21:12.980Z,10.71
2019-03-12T09:22:12.971Z,10.68
2019-03-12T09:23:12.949Z,10.69
2019-03-12T09:24:12.928Z,10.76
2019-03-12T09:25:12.917Z,10.84
2019-03-12T09:26:12.912Z,10.98
2019-03-12T09:27:12.884Z,11.04
2019-03-12T09:28:12.871Z,11.10
2019-03-12T09:29:12.856Z,11.20
2019-03-12T09:30:12.837Z,11.25
2019-03-12T09:31:12.824Z,11.35
2019-03-12T09:32:12.817Z,11.31
2019-03-12T09:33:12.791Z,11.34
2019-03-12T09:34:12.777Z,11.19
2019-03-12T09:35:12.759Z,11.02
2019-03-12T09:36:12.750Z,10.90
2019-03-12T09:37:12.738Z,10.89
2019-03-12T09:38:12.717Z,10.80
2019-03-12T09:39:12.701Z,10.92
2019-03-12T09:40:12.682Z,10.87
2019-03-12T09:41:12.678Z,10.90
2019-03-12T09:42:12.653Z,10.89
2019-03-12T09:43:12.637Z,10.90
2019-03-12T09:44:12.622Z,10.87
2019-03-12T09:45:12.605Z,10.87
2019-03-12T09:46:12.591Z,11.01
2019-03-12T09:47:12.578Z,11.07
2019-03-12T09:48:12.560Z,11.18
2019-03-12T09:49:12.543Z,11.33
2019-03-12T09:50:12.532Z,11.40
2019-03-12T09:51:12.519Z,11.52
2019-03-12T09:52:12.509Z,11.58
2019-03-12T09:53:12.481Z,11.62
2019-03-12T09:54:12.466Z,11.53
2019-03-12T09:55:12.452Z,11.53
2019-03-12T09:56:12.437Z,11.51
2019-03-12T09:58:51.853Z,11.12
2019-03-12T09:59:51.826Z,11.05
2019-03-12T10:01:59.264Z,11.07
2019-03-12T10:02:56.256Z,11.10
2019-03-12T10:05:01.674Z,11.10
2019-03-12T10:06:01.641Z,11.13
2019-03-12T10:08:07.072Z,11.19
2019-03-12T10:09:07.044Z,11.20
2019-03-12T10:11:11.481Z,11.35
2019-03-12T10:12:11.459Z,11.43
2019-03-12T10:14:15.868Z,11.88
2019-03-12T10:15:15.872Z,12.02
2019-03-12T10:17:20.282Z,12.05
2019-03-12T10:18:20.268Z,11.83
2019-03-12T10:20:24.695Z,11.44
2019-03-12T10:21:24.687Z,11.37
2019-03-12T10:23:29.086Z,11.15
2019-03-12T10:24:29.106Z,11.07
2019-03-12T10:26:33.555Z,11.01
2019-03-12T10:27:33.486Z,10.92
2019-03-12T10:29:37.941Z,10.57
2019-03-12T10:30:37.912Z,10.45
2019-03-12T10:31:37.903Z,10.45
2019-03-12T10:32:37.885Z,10.23
2019-03-12T10:33:37.865Z,10.12
2019-03-12T10:34:37.848Z,10.15
2019-03-12T10:35:37.838Z,10.05
2019-03-12T10:36:37.818Z,10.09
2019-03-12T10:37:37.800Z,10.03
2019-03-12T10:38:37.787Z,9.88
2019-03-12T10:39:37.786Z,9.77
2019-03-12T10:40:37.752Z,9.67
2019-03-12T10:41:37.743Z,9.70
2019-03-12T10:42:37.802Z,9.82
2019-03-12T10:43:37.750Z,9.84
2019-03-12T10:44:37.684Z,9.90
2019-03-12T10:45:37.674Z,9.82
2019-03-12T10:46:37.661Z,9.88
2019-03-12T10:47:37.640Z,9.91
2019-03-12T10:48:37.622Z,9.85
2019-03-12T10:49:37.944Z,9.88
2019-03-12T10:50:37.590Z,9.76
2019-03-12T10:51:37.576Z,9.85
2019-03-12T10:52:37.555Z,9.87
2019-03-12T10:53:37.540Z,9.90
2019-03-12T10:54:37.527Z,9.88
2019-03-12T10:55:37.521Z,9.84
2019-03-12T10:56:37.492Z,9.80
2019-03-12T10:57:37.486Z,9.84
2019-03-12T10:58:37.460Z,9.77
2019-03-12T10:59:37.460Z,9.66
2019-03-12T11:00:37.444Z,9.63
2019-03-12T11:01:37.408Z,9.59
2019-03-12T11:02:40.467Z,9.58
2019-03-12T11:03:37.381Z,9.55
2019-03-12T11:04:37.362Z,9.54
2019-03-12T11:05:45.867Z,9.56
2019-03-12T11:06:37.326Z,9.59
2019-03-12T11:07:37.313Z,9.64
2019-03-12T11:08:37.295Z,9.62
2019-03-12T11:09:37.281Z,9.73
2019-03-12T11:10:37.264Z,9.72
2019-03-12T11:11:37.247Z,9.73
2019-03-12T11:12:37.240Z,9.80
2019-03-12T11:13:37.212Z,9.70
2019-03-12T11:14:37.203Z,9.69
2019-03-12T11:15:37.183Z,9.62
2019-03-12T11:16:37.164Z,9.62
2019-03-12T11:17:48.700Z,9.59
2019-03-12T11:18:37.131Z,9.66
2019-03-12T11:19:37.120Z,9.80
2019-03-12T11:20:37.098Z,9.81
2019-03-12T11:21:37.084Z,9.84
2019-03-12T11:22:37.062Z,9.87
2019-03-12T11:23:37.055Z,9.88
2019-03-12T11:24:37.033Z,9.99
2019-03-12T11:25:37.013Z,10.02
2019-03-12T11:26:37.019Z,10.21
2019-03-12T11:27:36.981Z,10.20
2019-03-12T11:28:36.966Z,10.42
2019-03-12T11:29:36.959Z,10.48
2019-03-12T11:30:36.935Z,10.53
2019-03-12T11:31:36.920Z,10.69
2019-03-12T11:32:36.904Z,10.77
2019-03-12T11:33:36.887Z,10.79
2019-03-12T11:34:38.574Z,10.83
2019-03-12T11:35:39.533Z,10.82
2019-03-12T11:36:36.860Z,10.89
2019-03-12T11:37:36.826Z,10.94
2019-03-12T11:38:36.810Z,10.87
2019-03-12T11:39:36.817Z,10.89
2019-03-12T11:40:36.800Z,10.92
2019-03-12T11:41:36.761Z,10.86
2019-03-12T11:42:36.745Z,10.80
2019-03-12T11:43:36.743Z,10.76
2019-03-12T11:44:36.718Z,10.89
2019-03-12T11:45:38.031Z,10.76
2019-03-12T11:46:43.061Z,10.77
2019-03-12T11:47:36.702Z,10.72
2019-03-12T11:48:36.654Z,10.68
2019-03-12T11:49:36.645Z,10.67
2019-03-12T11:50:36.642Z,10.59
2019-03-12T11:51:36.608Z,10.49
2019-03-12T11:52:36.591Z,10.48
2019-03-12T11:53:36.571Z,10.49
2019-03-12T11:54:36.558Z,10.41
2019-03-12T11:55:36.540Z,10.33
2019-03-12T11:56:36.526Z,10.18
2019-03-12T11:57:36.505Z,10.07
2019-03-12T11:58:36.520Z,10.02
2019-03-12T11:59:36.479Z,9.91
2019-03-12T12:00:36.463Z,9.77
2019-03-12T12:01:36.443Z,9.80
2019-03-12T12:02:36.428Z,9.72
2019-03-12T12:03:36.408Z,9.67
2019-03-12T12:04:36.391Z,9.54
2019-03-12T12:05:36.389Z,9.55
2019-03-12T12:06:36.385Z,9.52
2019-03-12T12:07:36.365Z,9.48
2019-03-12T12:08:36.327Z,9.39
2019-03-12T12:09:36.334Z,9.37
2019-03-12T12:10:36.293Z,9.30
2019-03-12T12:11:36.279Z,9.40
2019-03-12T12:12:36.261Z,9.34
2019-03-12T12:13:36.245Z,9.52
2019-03-12T12:14:36.231Z,9.81
2019-03-12T12:15:36.213Z,10.02
2019-03-12T12:16:36.192Z,10.25
2019-03-12T12:17:36.179Z,10.42
2019-03-12T12:18:36.176Z,10.46
2019-03-12T12:19:36.148Z,10.43
2019-03-12T12:20:36.130Z,10.41
2019-03-12T12:21:36.116Z,10.46
2019-03-12T12:22:36.100Z,10.33
2019-03-12T12:23:36.086Z,10.25
2019-03-12T12:24:36.066Z,10.15
2019-03-12T12:25:36.054Z,10.05
2019-03-12T12:26:36.027Z,10.00
2019-03-12T12:27:36.019Z,9.92
2019-03-12T12:28:35.998Z,9.92
2019-03-12T12:29:35.984Z,9.87
2019-03-12T12:30:35.962Z,9.85
2019-03-12T12:31:35.950Z,9.88
2019-03-12T12:32:35.933Z,9.91
2019-03-12T12:33:35.917Z,9.81
2019-03-12T12:34:35.902Z,9.82
2019-03-12T12:35:35.885Z,9.70
2019-03-12T12:36:35.868Z,9.69
2019-03-12T12:37:35.863Z,9.69
2019-03-12T12:38:35.836Z,9.63
2019-03-12T12:39:35.817Z,9.62
2019-03-12T12:40:35.806Z,9.74
2019-03-12T12:41:35.784Z,9.76
2019-03-12T12:42:36.240Z,9.77
2019-03-12T12:43:35.752Z,10.07
2019-03-12T12:44:35.736Z,10.03
2019-03-12T12:45:35.722Z,10.17
2019-03-12T12:46:35.697Z,10.31
2019-03-12T12:47:35.687Z,10.34
2019-03-12T12:48:35.672Z,10.36
2019-03-12T12:49:35.668Z,10.31
2019-03-12T12:50:35.638Z,10.43
2019-03-12T12:51:35.623Z,10.41
2019-03-12T12:52:35.607Z,10.27
2019-03-12T12:53:35.589Z,10.20
2019-03-12T12:54:35.577Z,10.20
2019-03-12T12:55:35.574Z,10.10
2019-03-12T12:56:35.544Z,10.09
2019-03-12T12:57:35.524Z,10.05
2019-03-12T12:58:35.508Z,9.99
2019-03-12T12:59:35.494Z,10.02
2019-03-12T13:00:38.043Z,9.90
2019-03-12T13:01:35.458Z,9.95
2019-03-12T13:02:35.441Z,9.88
2019-03-12T13:03:35.429Z,9.90
2019-03-12T13:04:35.408Z,9.91
2019-03-12T13:05:35.395Z,9.82
2019-03-12T13:06:35.376Z,9.82
2019-03-12T13:07:35.367Z,9.76
2019-03-12T13:08:35.345Z,9.67
2019-03-12T13:09:35.327Z,9.69
2019-03-12T13:10:35.314Z,9.70
2019-03-12T13:11:35.294Z,9.72
2019-03-12T13:12:35.286Z,9.70
2019-03-12T13:13:35.262Z,9.64
2019-03-12T13:14:41.483Z,9.67
2019-03-12T13:15:35.229Z,9.62
2019-03-12T13:16:35.208Z,9.54
2019-03-12T13:17:35.190Z,9.63
2019-03-12T13:18:35.172Z,9.49
2019-03-12T13:19:35.180Z,9.52
2019-03-12T13:20:35.143Z,9.55
2019-03-12T13:21:35.123Z,9.49
2019-03-12T13:22:35.110Z,9.48
2019-03-12T13:23:36.312Z,9.45
2019-03-12T13:24:35.079Z,9.40
2019-03-12T13:25:35.057Z,9.31